sensor_id;sensor_type;location;lat;lon;timestamp;P1;durP1;ratioP1;P2;durP2;ratioP2
41921;SDS011;27609;51.002;5.354;2023-08-31T00:00:33;4.82;;;2.78;;
41921;SDS011;27609;51.002;5.354;2023-08-31T00:03:01;5.55;;;2.80;;
41921;SDS011;27609;51.002;5.354;2023-08-31T00:05:26;2.78;;;2.42;;
41921;SDS011;27609;51.002;5.354;2023-08-31T00:07:56;6.03;;;3.15;;
41921;SDS011;27609;51.002;5.354;2023-08-31T00:10:22;4.10;;;2.97;;
41921;SDS011;27609;51.002;5.354;2023-08-31T00:12:48;3.75;;;2.70;;
41921;SDS011;27609;51.002;5.354;2023-08-31T00:15:14;4.40;;;2.63;;
41921;SDS011;27609;51.002;5.354;2023-08-31T00:17:40;4.68;;;2.40;;
41921;SDS011;27609;51.002;5.354;2023-08-31T00:20:07;5.25;;;2.83;;
41921;SDS011;27609;51.002;5.354;2023-08-31T00:22:36;3.00;;;2.63;;
41921;SDS011;27609;51.002;5.354;2023-08-31T00:25:03;2.45;;;2.25;;
41921;SDS011;27609;51.002;5.354;2023-08-31T00:27:31;4.95;;;2.58;;
41921;SDS011;27609;51.002;5.354;2023-08-31T00:29:56;2.28;;;2.08;;
41921;SDS011;27609;51.002;5.354;2023-08-31T00:32:23;2.03;;;1.90;;
41921;SDS011;27609;51.002;5.354;2023-08-31T00:34:49;2.75;;;1.90;;
41921;SDS011;27609;51.002;5.354;2023-08-31T00:37:15;3.22;;;2.40;;
41921;SDS011;27609;51.002;5.354;2023-08-31T00:39:41;3.60;;;2.00;;
41921;SDS011;27609;51.002;5.354;2023-08-31T00:42:08;2.70;;;2.08;;
41921;SDS011;27609;51.002;5.354;2023-08-31T00:44:35;3.47;;;2.38;;
41921;SDS011;27609;51.002;5.354;2023-08-31T00:47:00;2.70;;;2.05;;
41921;SDS011;27609;51.002;5.354;2023-08-31T00:49:29;3.13;;;2.08;;
41921;SDS011;27609;51.002;5.354;2023-08-31T00:51:55;2.88;;;2.10;;
41921;SDS011;27609;51.002;5.354;2023-08-31T00:54:22;7.32;;;2.55;;
41921;SDS011;27609;51.002;5.354;2023-08-31T00:56:52;3.00;;;2.33;;
41921;SDS011;27609;51.002;5.354;2023-08-31T00:59:19;1.92;;;1.77;;
41921;SDS011;27609;51.002;5.354;2023-08-31T01:02:06;2.47;;;2.22;;
41921;SDS011;27609;51.002;5.354;2023-08-31T01:07:14;2.10;;;1.92;;
41921;SDS011;27609;51.002;5.354;2023-08-31T01:12:22;2.50;;;1.95;;
41921;SDS011;27609;51.002;5.354;2023-08-31T01:15:04;2.03;;;1.83;;
41921;SDS011;27609;51.002;5.354;2023-08-31T01:17:33;3.65;;;2.58;;
41921;SDS011;27609;51.002;5.354;2023-08-31T01:20:04;5.57;;;2.03;;
41921;SDS011;27609;51.002;5.354;2023-08-31T01:22:35;2.20;;;2.00;;
41921;SDS011;27609;51.002;5.354;2023-08-31T01:25:16;4.40;;;2.55;;
41921;SDS011;27609;51.002;5.354;2023-08-31T01:27:43;3.33;;;2.20;;
41921;SDS011;27609;51.002;5.354;2023-08-31T01:30:09;2.70;;;2.30;;
41921;SDS011;27609;51.002;5.354;2023-08-31T01:32:35;2.20;;;2.00;;
41921;SDS011;27609;51.002;5.354;2023-08-31T01:35:02;4.68;;;2.50;;
41921;SDS011;27609;51.002;5.354;2023-08-31T01:40:25;3.15;;;1.85;;
41921;SDS011;27609;51.002;5.354;2023-08-31T01:43:02;3.78;;;2.67;;
41921;SDS011;27609;51.002;5.354;2023-08-31T01:45:30;5.78;;;2.40;;
41921;SDS011;27609;51.002;5.354;2023-08-31T01:47:58;3.10;;;2.42;;
41921;SDS011;27609;51.002;5.354;2023-08-31T01:50:24;4.18;;;2.30;;
41921;SDS011;27609;51.002;5.354;2023-08-31T01:52:51;4.22;;;2.30;;
41921;SDS011;27609;51.002;5.354;2023-08-31T01:55:18;2.53;;;2.33;;
41921;SDS011;27609;51.002;5.354;2023-08-31T01:57:44;3.53;;;2.50;;
41921;SDS011;27609;51.002;5.354;2023-08-31T02:00:10;3.08;;;2.25;;
41921;SDS011;27609;51.002;5.354;2023-08-31T02:02:36;3.03;;;2.47;;
41921;SDS011;27609;51.002;5.354;2023-08-31T02:05:02;3.33;;;2.72;;
41921;SDS011;27609;51.002;5.354;2023-08-31T02:07:29;2.83;;;2.55;;
41921;SDS011;27609;51.002;5.354;2023-08-31T02:09:55;4.82;;;2.65;;
41921;SDS011;27609;51.002;5.354;2023-08-31T02:12:21;6.43;;;2.65;;
41921;SDS011;27609;51.002;5.354;2023-08-31T02:14:47;3.00;;;2.55;;
41921;SDS011;27609;51.002;5.354;2023-08-31T02:17:13;4.15;;;2.63;;
41921;SDS011;27609;51.002;5.354;2023-08-31T02:19:38;3.70;;;2.30;;
41921;SDS011;27609;51.002;5.354;2023-08-31T02:22:04;3.17;;;2.22;;
41921;SDS011;27609;51.002;5.354;2023-08-31T02:24:30;2.95;;;2.65;;
41921;SDS011;27609;51.002;5.354;2023-08-31T02:26:56;6.03;;;3.35;;
41921;SDS011;27609;51.002;5.354;2023-08-31T02:29:22;4.85;;;3.30;;
41921;SDS011;27609;51.002;5.354;2023-08-31T02:31:47;5.88;;;3.00;;
41921;SDS011;27609;51.002;5.354;2023-08-31T02:34:13;3.30;;;2.92;;
41921;SDS011;27609;51.002;5.354;2023-08-31T02:36:39;5.85;;;3.33;;
41921;SDS011;27609;51.002;5.354;2023-08-31T02:39:05;7.97;;;3.47;;
41921;SDS011;27609;51.002;5.354;2023-08-31T02:41:31;5.97;;;3.55;;
41921;SDS011;27609;51.002;5.354;2023-08-31T02:43:57;4.25;;;3.28;;
41921;SDS011;27609;51.002;5.354;2023-08-31T02:46:23;5.10;;;3.35;;
41921;SDS011;27609;51.002;5.354;2023-08-31T02:48:49;5.15;;;3.22;;
41921;SDS011;27609;51.002;5.354;2023-08-31T02:51:15;5.35;;;3.53;;
41921;SDS011;27609;51.002;5.354;2023-08-31T02:53:41;4.65;;;3.63;;
41921;SDS011;27609;51.002;5.354;2023-08-31T02:56:07;4.07;;;3.42;;
41921;SDS011;27609;51.002;5.354;2023-08-31T02:58:33;6.30;;;4.05;;
41921;SDS011;27609;51.002;5.354;2023-08-31T03:01:08;4.15;;;3.75;;
41921;SDS011;27609;51.002;5.354;2023-08-31T03:03:38;4.63;;;3.55;;
41921;SDS011;27609;51.002;5.354;2023-08-31T03:06:07;4.40;;;4.00;;
41921;SDS011;27609;51.002;5.354;2023-08-31T03:08:34;4.25;;;3.85;;
41921;SDS011;27609;51.002;5.354;2023-08-31T03:11:01;5.13;;;4.15;;
41921;SDS011;27609;51.002;5.354;2023-08-31T03:13:28;7.55;;;4.15;;
41921;SDS011;27609;51.002;5.354;2023-08-31T03:15:54;9.65;;;4.18;;
41921;SDS011;27609;51.002;5.354;2023-08-31T03:18:21;8.00;;;4.82;;
41921;SDS011;27609;51.002;5.354;2023-08-31T03:20:47;14.07;;;5.00;;
41921;SDS011;27609;51.002;5.354;2023-08-31T03:23:13;8.18;;;4.40;;
41921;SDS011;27609;51.002;5.354;2023-08-31T03:25:39;6.05;;;4.25;;
41921;SDS011;27609;51.002;5.354;2023-08-31T03:28:05;7.10;;;4.60;;
41921;SDS011;27609;51.002;5.354;2023-08-31T03:30:30;6.50;;;4.97;;
41921;SDS011;27609;51.002;5.354;2023-08-31T03:32:56;6.70;;;4.43;;
41921;SDS011;27609;51.002;5.354;2023-08-31T03:35:22;6.82;;;4.60;;
41921;SDS011;27609;51.002;5.354;2023-08-31T03:37:52;5.97;;;4.68;;
41921;SDS011;27609;51.002;5.354;2023-08-31T03:40:18;6.93;;;4.57;;
41921;SDS011;27609;51.002;5.354;2023-08-31T03:42:44;5.53;;;4.50;;
41921;SDS011;27609;51.002;5.354;2023-08-31T03:45:10;6.72;;;5.07;;
41921;SDS011;27609;51.002;5.354;2023-08-31T03:47:36;5.55;;;4.82;;
41921;SDS011;27609;51.002;5.354;2023-08-31T03:50:02;9.52;;;5.82;;
41921;SDS011;27609;51.002;5.354;2023-08-31T03:52:29;8.38;;;5.13;;
41921;SDS011;27609;51.002;5.354;2023-08-31T03:54:54;8.90;;;5.70;;
41921;SDS011;27609;51.002;5.354;2023-08-31T03:57:20;7.22;;;5.25;;
41921;SDS011;27609;51.002;5.354;2023-08-31T03:59:46;6.95;;;4.90;;
41921;SDS011;27609;51.002;5.354;2023-08-31T04:02:12;11.05;;;5.25;;
41921;SDS011;27609;51.002;5.354;2023-08-31T04:04:38;5.57;;;4.88;;
41921;SDS011;27609;51.002;5.354;2023-08-31T04:07:03;6.40;;;5.32;;
41921;SDS011;27609;51.002;5.354;2023-08-31T04:09:30;9.80;;;6.05;;
41921;SDS011;27609;51.002;5.354;2023-08-31T04:11:55;6.90;;;5.57;;
41921;SDS011;27609;51.002;5.354;2023-08-31T04:14:21;8.40;;;5.05;;
41921;SDS011;27609;51.002;5.354;2023-08-31T04:16:47;10.85;;;5.50;;
41921;SDS011;27609;51.002;5.354;2023-08-31T04:19:15;10.07;;;5.35;;
41921;SDS011;27609;51.002;5.354;2023-08-31T04:21:42;7.63;;;5.53;;
41921;SDS011;27609;51.002;5.354;2023-08-31T04:24:08;12.10;;;6.13;;
41921;SDS011;27609;51.002;5.354;2023-08-31T04:26:34;8.80;;;5.70;;
41921;SDS011;27609;51.002;5.354;2023-08-31T04:29:01;7.65;;;5.75;;
41921;SDS011;27609;51.002;5.354;2023-08-31T04:31:28;14.30;;;6.50;;
41921;SDS011;27609;51.002;5.354;2023-08-31T04:33:54;11.30;;;5.35;;
41921;SDS011;27609;51.002;5.354;2023-08-31T04:36:20;8.75;;;5.70;;
41921;SDS011;27609;51.002;5.354;2023-08-31T04:38:47;10.60;;;6.45;;
41921;SDS011;27609;51.002;5.354;2023-08-31T04:41:13;10.75;;;6.38;;
41921;SDS011;27609;51.002;5.354;2023-08-31T04:43:39;9.68;;;6.45;;
41921;SDS011;27609;51.002;5.354;2023-08-31T04:46:05;10.60;;;6.40;;
41921;SDS011;27609;51.002;5.354;2023-08-31T04:48:31;8.15;;;5.65;;
41921;SDS011;27609;51.002;5.354;2023-08-31T04:50:57;11.05;;;6.30;;
41921;SDS011;27609;51.002;5.354;2023-08-31T04:53:24;14.43;;;6.47;;
41921;SDS011;27609;51.002;5.354;2023-08-31T04:55:50;10.45;;;6.15;;
41921;SDS011;27609;51.002;5.354;2023-08-31T04:58:16;10.63;;;6.25;;
41921;SDS011;27609;51.002;5.354;2023-08-31T05:00:41;8.63;;;6.15;;
41921;SDS011;27609;51.002;5.354;2023-08-31T05:03:09;8.93;;;5.53;;
41921;SDS011;27609;51.002;5.354;2023-08-31T05:05:35;9.57;;;6.32;;
41921;SDS011;27609;51.002;5.354;2023-08-31T05:08:02;7.40;;;6.50;;
41921;SDS011;27609;51.002;5.354;2023-08-31T05:10:28;12.90;;;6.13;;
41921;SDS011;27609;51.002;5.354;2023-08-31T05:12:54;9.38;;;6.18;;
41921;SDS011;27609;51.002;5.354;2023-08-31T05:15:19;12.98;;;5.78;;
41921;SDS011;27609;51.002;5.354;2023-08-31T05:17:45;7.18;;;6.25;;
41921;SDS011;27609;51.002;5.354;2023-08-31T05:20:12;8.65;;;6.20;;
41921;SDS011;27609;51.002;5.354;2023-08-31T05:22:38;8.40;;;6.00;;
41921;SDS011;27609;51.002;5.354;2023-08-31T05:25:04;7.07;;;6.35;;
41921;SDS011;27609;51.002;5.354;2023-08-31T05:27:30;11.00;;;6.40;;
41921;SDS011;27609;51.002;5.354;2023-08-31T05:29:56;9.75;;;5.45;;
41921;SDS011;27609;51.002;5.354;2023-08-31T05:32:21;9.38;;;5.40;;
41921;SDS011;27609;51.002;5.354;2023-08-31T05:34:47;9.50;;;6.43;;
41921;SDS011;27609;51.002;5.354;2023-08-31T05:37:13;8.82;;;5.93;;
41921;SDS011;27609;51.002;5.354;2023-08-31T05:39:39;8.63;;;5.40;;
41921;SDS011;27609;51.002;5.354;2023-08-31T05:42:05;11.43;;;5.97;;
41921;SDS011;27609;51.002;5.354;2023-08-31T05:44:30;7.88;;;5.47;;
41921;SDS011;27609;51.002;5.354;2023-08-31T05:46:56;10.20;;;5.53;;
41921;SDS011;27609;51.002;5.354;2023-08-31T05:49:22;10.25;;;5.63;;
41921;SDS011;27609;51.002;5.354;2023-08-31T05:51:48;12.02;;;5.47;;
41921;SDS011;27609;51.002;5.354;2023-08-31T05:54:14;15.23;;;6.05;;
41921;SDS011;27609;51.002;5.354;2023-08-31T05:56:40;6.03;;;5.38;;
41921;SDS011;27609;51.002;5.354;2023-08-31T05:59:06;7.70;;;4.57;;
41921;SDS011;27609;51.002;5.354;2023-08-31T06:01:33;12.38;;;5.75;;
41921;SDS011;27609;51.002;5.354;2023-08-31T06:03:59;8.05;;;4.85;;
41921;SDS011;27609;51.002;5.354;2023-08-31T06:06:25;10.95;;;4.47;;
41921;SDS011;27609;51.002;5.354;2023-08-31T06:08:51;7.60;;;4.65;;
41921;SDS011;27609;51.002;5.354;2023-08-31T06:11:18;6.15;;;4.55;;
41921;SDS011;27609;51.002;5.354;2023-08-31T06:13:44;10.30;;;4.82;;
41921;SDS011;27609;51.002;5.354;2023-08-31T06:16:10;9.32;;;4.05;;
41921;SDS011;27609;51.002;5.354;2023-08-31T06:18:36;8.00;;;5.32;;
41921;SDS011;27609;51.002;5.354;2023-08-31T06:21:01;10.23;;;4.43;;
41921;SDS011;27609;51.002;5.354;2023-08-31T06:23:27;8.88;;;4.07;;
41921;SDS011;27609;51.002;5.354;2023-08-31T06:25:53;8.32;;;4.40;;
41921;SDS011;27609;51.002;5.354;2023-08-31T06:28:18;8.43;;;3.83;;
41921;SDS011;27609;51.002;5.354;2023-08-31T06:30:44;7.82;;;3.85;;
41921;SDS011;27609;51.002;5.354;2023-08-31T06:33:12;6.95;;;3.70;;
41921;SDS011;27609;51.002;5.354;2023-08-31T06:35:40;3.63;;;3.03;;
41921;SDS011;27609;51.002;5.354;2023-08-31T06:38:06;7.25;;;3.70;;
41921;SDS011;27609;51.002;5.354;2023-08-31T06:40:32;5.40;;;3.03;;
41921;SDS011;27609;51.002;5.354;2023-08-31T06:42:58;6.55;;;3.40;;
41921;SDS011;27609;51.002;5.354;2023-08-31T06:45:24;3.42;;;2.70;;
41921;SDS011;27609;51.002;5.354;2023-08-31T06:47:50;5.30;;;3.10;;
41921;SDS011;27609;51.002;5.354;2023-08-31T06:50:16;5.13;;;2.90;;
41921;SDS011;27609;51.002;5.354;2023-08-31T06:52:44;4.93;;;2.70;;
41921;SDS011;27609;51.002;5.354;2023-08-31T06:55:11;6.13;;;2.83;;
41921;SDS011;27609;51.002;5.354;2023-08-31T06:57:37;9.68;;;2.63;;
41921;SDS011;27609;51.002;5.354;2023-08-31T07:00:03;5.82;;;2.28;;
41921;SDS011;27609;51.002;5.354;2023-08-31T07:02:31;9.77;;;2.28;;
41921;SDS011;27609;51.002;5.354;2023-08-31T07:04:59;6.43;;;2.70;;
41921;SDS011;27609;51.002;5.354;2023-08-31T07:07:25;5.35;;;1.80;;
41921;SDS011;27609;51.002;5.354;2023-08-31T07:09:50;8.52;;;2.20;;
41921;SDS011;27609;51.002;5.354;2023-08-31T07:12:16;5.53;;;2.30;;
41921;SDS011;27609;51.002;5.354;2023-08-31T07:14:42;6.00;;;2.30;;
41921;SDS011;27609;51.002;5.354;2023-08-31T07:17:08;6.38;;;1.90;;
41921;SDS011;27609;51.002;5.354;2023-08-31T07:19:37;4.30;;;1.80;;
41921;SDS011;27609;51.002;5.354;2023-08-31T07:22:04;8.95;;;1.65;;
41921;SDS011;27609;51.002;5.354;2023-08-31T07:24:31;7.55;;;2.20;;
41921;SDS011;27609;51.002;5.354;2023-08-31T07:26:57;3.65;;;2.30;;
41921;SDS011;27609;51.002;5.354;2023-08-31T07:29:22;4.43;;;1.88;;
41921;SDS011;27609;51.002;5.354;2023-08-31T07:31:48;5.00;;;2.25;;
41921;SDS011;27609;51.002;5.354;2023-08-31T07:34:14;6.93;;;2.25;;
41921;SDS011;27609;51.002;5.354;2023-08-31T07:36:39;4.10;;;1.73;;
41921;SDS011;27609;51.002;5.354;2023-08-31T07:39:05;6.43;;;2.22;;
41921;SDS011;27609;51.002;5.354;2023-08-31T07:41:32;6.00;;;2.50;;
41921;SDS011;27609;51.002;5.354;2023-08-31T07:43:57;10.35;;;2.50;;
41921;SDS011;27609;51.002;5.354;2023-08-31T07:46:23;3.40;;;2.42;;
41921;SDS011;27609;51.002;5.354;2023-08-31T07:48:49;6.95;;;2.97;;
41921;SDS011;27609;51.002;5.354;2023-08-31T07:51:15;7.55;;;2.60;;
41921;SDS011;27609;51.002;5.354;2023-08-31T07:53:41;5.68;;;2.88;;
41921;SDS011;27609;51.002;5.354;2023-08-31T07:56:07;9.00;;;2.55;;
41921;SDS011;27609;51.002;5.354;2023-08-31T07:58:33;9.20;;;2.67;;
41921;SDS011;27609;51.002;5.354;2023-08-31T08:00:58;6.35;;;2.50;;
41921;SDS011;27609;51.002;5.354;2023-08-31T08:03:24;5.90;;;2.47;;
41921;SDS011;27609;51.002;5.354;2023-08-31T08:05:50;5.65;;;2.58;;
41921;SDS011;27609;51.002;5.354;2023-08-31T08:08:16;11.25;;;2.70;;
41921;SDS011;27609;51.002;5.354;2023-08-31T08:10:42;10.73;;;2.63;;
41921;SDS011;27609;51.002;5.354;2023-08-31T08:13:09;8.02;;;2.95;;
41921;SDS011;27609;51.002;5.354;2023-08-31T08:15:34;9.05;;;3.75;;
41921;SDS011;27609;51.002;5.354;2023-08-31T08:18:00;5.78;;;2.85;;
41921;SDS011;27609;51.002;5.354;2023-08-31T08:20:29;7.53;;;2.80;;
41921;SDS011;27609;51.002;5.354;2023-08-31T08:22:56;4.97;;;2.20;;
41921;SDS011;27609;51.002;5.354;2023-08-31T08:25:23;6.50;;;2.55;;
41921;SDS011;27609;51.002;5.354;2023-08-31T08:27:50;9.02;;;3.42;;
41921;SDS011;27609;51.002;5.354;2023-08-31T08:30:15;11.18;;;3.47;;
41921;SDS011;27609;51.002;5.354;2023-08-31T08:32:41;8.48;;;3.13;;
41921;SDS011;27609;51.002;5.354;2023-08-31T08:35:08;8.65;;;2.42;;
41921;SDS011;27609;51.002;5.354;2023-08-31T08:37:34;8.15;;;3.58;;
41921;SDS011;27609;51.002;5.354;2023-08-31T08:40:00;11.07;;;2.63;;
41921;SDS011;27609;51.002;5.354;2023-08-31T08:42:26;7.53;;;3.25;;
41921;SDS011;27609;51.002;5.354;2023-08-31T08:44:56;5.57;;;2.47;;
41921;SDS011;27609;51.002;5.354;2023-08-31T08:47:22;10.38;;;2.42;;
41921;SDS011;27609;51.002;5.354;2023-08-31T08:49:49;8.85;;;2.90;;
41921;SDS011;27609;51.002;5.354;2023-08-31T08:52:15;12.60;;;2.85;;
41921;SDS011;27609;51.002;5.354;2023-08-31T08:54:41;9.52;;;3.10;;
41921;SDS011;27609;51.002;5.354;2023-08-31T08:57:07;6.40;;;2.83;;
41921;SDS011;27609;51.002;5.354;2023-08-31T08:59:33;5.75;;;3.03;;
41921;SDS011;27609;51.002;5.354;2023-08-31T09:01:59;7.22;;;3.35;;
41921;SDS011;27609;51.002;5.354;2023-08-31T09:04:25;6.95;;;2.83;;
41921;SDS011;27609;51.002;5.354;2023-08-31T09:06:50;9.75;;;3.47;;
41921;SDS011;27609;51.002;5.354;2023-08-31T09:09:16;9.90;;;2.63;;
41921;SDS011;27609;51.002;5.354;2023-08-31T09:11:42;5.95;;;2.67;;
41921;SDS011;27609;51.002;5.354;2023-08-31T09:14:18;4.07;;;2.40;;
41921;SDS011;27609;51.002;5.354;2023-08-31T09:16:46;7.72;;;2.63;;
41921;SDS011;27609;51.002;5.354;2023-08-31T09:19:19;6.57;;;2.67;;
41921;SDS011;27609;51.002;5.354;2023-08-31T09:21:48;6.18;;;2.47;;
41921;SDS011;27609;51.002;5.354;2023-08-31T09:24:15;7.88;;;2.90;;
41921;SDS011;27609;51.002;5.354;2023-08-31T09:26:44;6.53;;;2.45;;
41921;SDS011;27609;51.002;5.354;2023-08-31T09:29:12;6.15;;;2.63;;
41921;SDS011;27609;51.002;5.354;2023-08-31T09:31:41;9.55;;;3.38;;
41921;SDS011;27609;51.002;5.354;2023-08-31T09:34:08;5.72;;;2.92;;
41921;SDS011;27609;51.002;5.354;2023-08-31T09:36:33;7.72;;;2.70;;
41921;SDS011;27609;51.002;5.354;2023-08-31T09:38:59;6.47;;;2.30;;
41921;SDS011;27609;51.002;5.354;2023-08-31T09:41:25;7.28;;;2.75;;
41921;SDS011;27609;51.002;5.354;2023-08-31T09:43:51;4.85;;;2.05;;
41921;SDS011;27609;51.002;5.354;2023-08-31T09:46:16;6.05;;;2.70;;
41921;SDS011;27609;51.002;5.354;2023-08-31T09:48:43;7.47;;;3.08;;
41921;SDS011;27609;51.002;5.354;2023-08-31T09:51:12;4.15;;;2.30;;
41921;SDS011;27609;51.002;5.354;2023-08-31T09:53:45;8.52;;;2.53;;
41921;SDS011;27609;51.002;5.354;2023-08-31T09:58:44;10.02;;;2.30;;
41921;SDS011;27609;51.002;5.354;2023-08-31T10:01:10;7.00;;;2.70;;
41921;SDS011;27609;51.002;5.354;2023-08-31T10:03:36;4.95;;;2.30;;
41921;SDS011;27609;51.002;5.354;2023-08-31T10:06:03;7.47;;;2.67;;
41921;SDS011;27609;51.002;5.354;2023-08-31T10:08:29;7.43;;;2.53;;
41921;SDS011;27609;51.002;5.354;2023-08-31T10:10:58;9.80;;;2.67;;
41921;SDS011;27609;51.002;5.354;2023-08-31T10:13:24;7.88;;;2.70;;
41921;SDS011;27609;51.002;5.354;2023-08-31T10:15:51;8.82;;;2.58;;
41921;SDS011;27609;51.002;5.354;2023-08-31T10:18:18;6.05;;;3.05;;
41921;SDS011;27609;51.002;5.354;2023-08-31T10:20:44;4.25;;;1.88;;
41921;SDS011;27609;51.002;5.354;2023-08-31T10:23:11;6.32;;;2.55;;
41921;SDS011;27609;51.002;5.354;2023-08-31T10:28:23;7.40;;;2.25;;
41921;SDS011;27609;51.002;5.354;2023-08-31T10:31:02;5.57;;;2.42;;
41921;SDS011;27609;51.002;5.354;2023-08-31T10:35:58;7.53;;;2.63;;
41921;SDS011;27609;51.002;5.354;2023-08-31T10:38:25;4.63;;;2.00;;
41921;SDS011;27609;51.002;5.354;2023-08-31T10:41:00;8.23;;;2.80;;
41921;SDS011;27609;51.002;5.354;2023-08-31T10:43:28;6.32;;;2.65;;
41921;SDS011;27609;51.002;5.354;2023-08-31T10:46:28;4.93;;;2.33;;
41921;SDS011;27609;51.002;5.354;2023-08-31T10:51:34;6.68;;;2.40;;
41921;SDS011;27609;51.002;5.354;2023-08-31T10:54:11;4.72;;;2.33;;
41921;SDS011;27609;51.002;5.354;2023-08-31T11:05:04;5.82;;;2.03;;
41921;SDS011;27609;51.002;5.354;2023-08-31T11:07:32;2.92;;;1.70;;
41921;SDS011;27609;51.002;5.354;2023-08-31T11:10:15;6.00;;;1.73;;
41921;SDS011;27609;51.002;5.354;2023-08-31T11:12:46;4.28;;;1.63;;
41921;SDS011;27609;51.002;5.354;2023-08-31T11:15:23;6.05;;;2.33;;
41921;SDS011;27609;51.002;5.354;2023-08-31T11:17:51;4.35;;;1.80;;
41921;SDS011;27609;51.002;5.354;2023-08-31T11:20:20;3.75;;;1.65;;
41921;SDS011;27609;51.002;5.354;2023-08-31T11:22:47;3.58;;;1.35;;
41921;SDS011;27609;51.002;5.354;2023-08-31T11:25:19;3.55;;;1.85;;
41921;SDS011;27609;51.002;5.354;2023-08-31T11:27:55;4.40;;;1.50;;
41921;SDS011;27609;51.002;5.354;2023-08-31T11:30:22;3.50;;;1.27;;
41921;SDS011;27609;51.002;5.354;2023-08-31T11:32:49;6.30;;;1.83;;
41921;SDS011;27609;51.002;5.354;2023-08-31T11:35:16;3.13;;;1.45;;
41921;SDS011;27609;51.002;5.354;2023-08-31T11:37:43;3.83;;;1.25;;
41921;SDS011;27609;51.002;5.354;2023-08-31T11:40:10;2.40;;;0.90;;
41921;SDS011;27609;51.002;5.354;2023-08-31T11:42:39;6.70;;;2.15;;
41921;SDS011;27609;51.002;5.354;2023-08-31T11:45:06;6.28;;;1.25;;
41921;SDS011;27609;51.002;5.354;2023-08-31T11:47:32;3.95;;;1.30;;
41921;SDS011;27609;51.002;5.354;2023-08-31T11:49:58;3.30;;;1.17;;
41921;SDS011;27609;51.002;5.354;2023-08-31T11:52:26;3.22;;;1.10;;
41921;SDS011;27609;51.002;5.354;2023-08-31T11:54:53;5.70;;;1.80;;
41921;SDS011;27609;51.002;5.354;2023-08-31T11:57:19;2.95;;;1.10;;
41921;SDS011;27609;51.002;5.354;2023-08-31T11:59:51;6.32;;;1.73;;
41921;SDS011;27609;51.002;5.354;2023-08-31T12:02:20;4.68;;;1.35;;
41921;SDS011;27609;51.002;5.354;2023-08-31T12:04:46;2.47;;;1.25;;
41921;SDS011;27609;51.002;5.354;2023-08-31T12:07:16;3.30;;;1.40;;
41921;SDS011;27609;51.002;5.354;2023-08-31T12:09:42;6.68;;;1.83;;
41921;SDS011;27609;51.002;5.354;2023-08-31T12:12:15;4.55;;;1.50;;
41921;SDS011;27609;51.002;5.354;2023-08-31T12:14:45;5.13;;;1.55;;
41921;SDS011;27609;51.002;5.354;2023-08-31T12:17:10;4.30;;;1.70;;
41921;SDS011;27609;51.002;5.354;2023-08-31T12:19:36;2.90;;;1.73;;
41921;SDS011;27609;51.002;5.354;2023-08-31T12:22:06;5.88;;;2.72;;
41921;SDS011;27609;51.002;5.354;2023-08-31T12:24:38;7.50;;;1.70;;
41921;SDS011;27609;51.002;5.354;2023-08-31T12:27:05;5.53;;;1.98;;
41921;SDS011;27609;51.002;5.354;2023-08-31T12:29:34;3.55;;;1.70;;
41921;SDS011;27609;51.002;5.354;2023-08-31T12:32:00;3.90;;;1.90;;
41921;SDS011;27609;51.002;5.354;2023-08-31T12:34:26;4.57;;;1.60;;
41921;SDS011;27609;51.002;5.354;2023-08-31T12:36:52;4.40;;;1.42;;
41921;SDS011;27609;51.002;5.354;2023-08-31T12:39:17;5.45;;;2.03;;
41921;SDS011;27609;51.002;5.354;2023-08-31T12:41:43;5.15;;;2.30;;
41921;SDS011;27609;51.002;5.354;2023-08-31T12:44:09;7.50;;;1.70;;
41921;SDS011;27609;51.002;5.354;2023-08-31T12:46:35;5.30;;;1.80;;
41921;SDS011;27609;51.002;5.354;2023-08-31T12:49:01;6.70;;;1.65;;
41921;SDS011;27609;51.002;5.354;2023-08-31T12:51:28;4.68;;;1.88;;
41921;SDS011;27609;51.002;5.354;2023-08-31T12:53:55;5.10;;;1.77;;
41921;SDS011;27609;51.002;5.354;2023-08-31T12:56:21;3.95;;;1.67;;
41921;SDS011;27609;51.002;5.354;2023-08-31T12:58:50;3.95;;;1.90;;
41921;SDS011;27609;51.002;5.354;2023-08-31T13:01:17;4.07;;;1.90;;
41921;SDS011;27609;51.002;5.354;2023-08-31T13:03:44;9.10;;;2.50;;
41921;SDS011;27609;51.002;5.354;2023-08-31T13:06:10;2.60;;;1.50;;
41921;SDS011;27609;51.002;5.354;2023-08-31T13:08:36;5.95;;;1.92;;
41921;SDS011;27609;51.002;5.354;2023-08-31T13:11:02;5.55;;;1.70;;
41921;SDS011;27609;51.002;5.354;2023-08-31T13:13:30;6.15;;;1.98;;
41921;SDS011;27609;51.002;5.354;2023-08-31T13:15:56;3.83;;;1.60;;
41921;SDS011;27609;51.002;5.354;2023-08-31T13:18:22;4.05;;;1.30;;
41921;SDS011;27609;51.002;5.354;2023-08-31T13:20:54;4.40;;;1.60;;
41921;SDS011;27609;51.002;5.354;2023-08-31T13:23:21;6.95;;;1.92;;
41921;SDS011;27609;51.002;5.354;2023-08-31T13:25:47;5.15;;;1.40;;
41921;SDS011;27609;51.002;5.354;2023-08-31T13:28:14;7.65;;;1.80;;
41921;SDS011;27609;51.002;5.354;2023-08-31T13:30:40;3.45;;;2.05;;
41921;SDS011;27609;51.002;5.354;2023-08-31T13:33:06;3.40;;;1.45;;
41921;SDS011;27609;51.002;5.354;2023-08-31T13:35:32;7.28;;;1.80;;
41921;SDS011;27609;51.002;5.354;2023-08-31T13:37:58;5.97;;;1.73;;
41921;SDS011;27609;51.002;5.354;2023-08-31T13:40:24;5.53;;;1.60;;
41921;SDS011;27609;51.002;5.354;2023-08-31T13:42:56;4.88;;;1.67;;
41921;SDS011;27609;51.002;5.354;2023-08-31T13:45:26;9.07;;;2.10;;
41921;SDS011;27609;51.002;5.354;2023-08-31T13:47:52;4.10;;;1.40;;
41921;SDS011;27609;51.002;5.354;2023-08-31T13:50:18;4.40;;;1.90;;
41921;SDS011;27609;51.002;5.354;2023-08-31T13:52:44;6.20;;;1.60;;
41921;SDS011;27609;51.002;5.354;2023-08-31T13:55:10;4.57;;;2.13;;
41921;SDS011;27609;51.002;5.354;2023-08-31T13:57:35;9.23;;;2.00;;
41921;SDS011;27609;51.002;5.354;2023-08-31T14:00:01;5.97;;;1.73;;
41921;SDS011;27609;51.002;5.354;2023-08-31T14:02:29;4.85;;;1.50;;
41921;SDS011;27609;51.002;5.354;2023-08-31T14:04:55;4.75;;;1.65;;
41921;SDS011;27609;51.002;5.354;2023-08-31T14:07:22;4.88;;;1.50;;
41921;SDS011;27609;51.002;5.354;2023-08-31T14:09:48;4.72;;;1.70;;
41921;SDS011;27609;51.002;5.354;2023-08-31T14:12:14;3.78;;;1.33;;
41921;SDS011;27609;51.002;5.354;2023-08-31T14:14:40;4.15;;;1.35;;
41921;SDS011;27609;51.002;5.354;2023-08-31T14:17:06;4.78;;;1.45;;
41921;SDS011;27609;51.002;5.354;2023-08-31T14:19:32;4.53;;;1.30;;
41921;SDS011;27609;51.002;5.354;2023-08-31T14:22:00;5.68;;;1.90;;
41921;SDS011;27609;51.002;5.354;2023-08-31T14:24:29;4.18;;;1.50;;
41921;SDS011;27609;51.002;5.354;2023-08-31T14:26:54;2.90;;;1.60;;
41921;SDS011;27609;51.002;5.354;2023-08-31T14:29:20;4.35;;;2.15;;
41921;SDS011;27609;51.002;5.354;2023-08-31T14:31:46;2.65;;;1.40;;
41921;SDS011;27609;51.002;5.354;2023-08-31T14:34:11;2.28;;;1.40;;
41921;SDS011;27609;51.002;5.354;2023-08-31T14:36:37;6.07;;;1.52;;
41921;SDS011;27609;51.002;5.354;2023-08-31T14:39:03;5.28;;;1.58;;
41921;SDS011;27609;51.002;5.354;2023-08-31T14:41:30;8.68;;;1.88;;
41921;SDS011;27609;51.002;5.354;2023-08-31T14:43:56;2.85;;;1.40;;
41921;SDS011;27609;51.002;5.354;2023-08-31T14:46:21;8.25;;;1.63;;
41921;SDS011;27609;51.002;5.354;2023-08-31T14:48:49;3.63;;;1.35;;
41921;SDS011;27609;51.002;5.354;2023-08-31T14:51:15;2.75;;;1.40;;
41921;SDS011;27609;51.002;5.354;2023-08-31T14:53:42;3.17;;;1.23;;
41921;SDS011;27609;51.002;5.354;2023-08-31T14:56:08;3.42;;;1.50;;
41921;SDS011;27609;51.002;5.354;2023-08-31T14:58:33;6.15;;;1.80;;
41921;SDS011;27609;51.002;5.354;2023-08-31T15:00:59;3.25;;;1.40;;
41921;SDS011;27609;51.002;5.354;2023-08-31T15:03:25;4.65;;;1.58;;
41921;SDS011;27609;51.002;5.354;2023-08-31T15:05:51;2.80;;;1.52;;
41921;SDS011;27609;51.002;5.354;2023-08-31T15:08:17;8.38;;;2.15;;
41921;SDS011;27609;51.002;5.354;2023-08-31T15:10:43;4.10;;;1.60;;